sensor_id;sensor_type;location;lat;lon;timestamp;pressure;altitude;pressure_sealevel;temperature;humidity
73306;BME280;61530;51.158;0.880;2023-02-13T00:00:26;1033.04;;;5.375;30.9939
73306;BME280;61530;51.158;0.880;2023-02-13T00:01:30;1033.05;;;5.4375;30.9581
73306;BME280;61530;51.158;0.880;2023-02-13T00:02:34;1033.03;;;5.5;31.5178
73306;BME280;61530;51.158;0.880;2023-02-13T00:03:38;1033.02;;;5.4375;31.1963
73306;BME280;61530;51.158;0.880;2023-02-13T00:04:42;1033.03;;;5.4375;31.526
73306;BME280;61530;51.158;0.880;2023-02-13T00:05:46;1033.03;;;5.4375;31.0149
73306;BME280;61530;51.158;0.880;2023-02-13T00:06:50;1033.0;;;5.5;31.103
73306;BME280;61530;51.158;0.880;2023-02-13T00:07:55;1033.0;;;5.4375;30.762
73306;BME280;61530;51.158;0.880;2023-02-13T00:08:58;1033.0;;;5.5625;31.0461
73306;BME280;61530;51.158;0.880;2023-02-13T00:10:04;1033.0;;;5.5625;31.5744
73306;BME280;61530;51.158;0.880;2023-02-13T00:11:06;1032.99;;;5.625;31.3656
73306;BME280;61530;51.158;0.880;2023-02-13T00:12:11;1033.0;;;5.5625;32.2556
73306;BME280;61530;51.158;0.880;2023-02-13T00:13:14;1032.99;;;5.75;31.4348
73306;BME280;61530;51.158;0.880;2023-02-13T00:14:18;1033.0;;;5.6875;31.7095
73306;BME280;61530;51.158;0.880;2023-02-13T00:15:22;1032.97;;;5.6875;31.6105
73306;BME280;61530;51.158;0.880;2023-02-13T00:16:27;1032.96;;;5.6875;31.1871
73306;BME280;61530;51.158;0.880;2023-02-13T00:17:30;1032.98;;;5.75;31.4345
73306;BME280;61530;51.158;0.880;2023-02-13T00:18:36;1032.95;;;5.6875;31.3035
73306;BME280;61530;51.158;0.880;2023-02-13T00:19:38;1032.95;;;5.75;30.6805
73306;BME280;61530;51.158;0.880;2023-02-13T00:20:42;1032.95;;;5.6875;30.9919
73306;BME280;61530;51.158;0.880;2023-02-13T00:21:46;1032.94;;;5.6875;31.6178
73306;BME280;61530;51.158;0.880;2023-02-13T00:22:50;1032.92;;;5.6875;31.4432
73306;BME280;61530;51.158;0.880;2023-02-13T00:23:54;1032.94;;;5.6875;30.418
73306;BME280;61530;51.158;0.880;2023-02-13T00:24:58;1032.91;;;5.75;31.0033
73306;BME280;61530;51.158;0.880;2023-02-13T00:26:06;1032.88;;;5.75;31.0894
73306;BME280;61530;51.158;0.880;2023-02-13T00:27:06;1032.86;;;5.75;31.2888
73306;BME280;61530;51.158;0.880;2023-02-13T00:28:10;1032.87;;;5.8125;31.2721
73306;BME280;61530;51.158;0.880;2023-02-13T00:29:15;1032.85;;;5.6875;31.6224
73306;BME280;61530;51.158;0.880;2023-02-13T00:30:18;1032.84;;;5.75;31.5018
73306;BME280;61530;51.158;0.880;2023-02-13T00:31:22;1032.84;;;5.75;31.6104
73306;BME280;61530;51.158;0.880;2023-02-13T00:32:26;1032.83;;;5.75;32.3779
73306;BME280;61530;51.158;0.880;2023-02-13T00:33:31;1032.84;;;5.75;31.9075
73306;BME280;61530;51.158;0.880;2023-02-13T00:34:34;1032.84;;;5.6875;31.3541
73306;BME280;61530;51.158;0.880;2023-02-13T00:35:38;1032.83;;;5.6875;31.9979
73306;BME280;61530;51.158;0.880;2023-02-13T00:36:42;1032.84;;;5.75;31.5066
73306;BME280;61530;51.158;0.880;2023-02-13T00:37:46;1032.82;;;5.625;31.3687
73306;BME280;61530;51.158;0.880;2023-02-13T00:38:50;1032.81;;;5.625;31.3671
73306;BME280;61530;51.158;0.880;2023-02-13T00:39:54;1032.8;;;5.625;31.5555
73306;BME280;61530;51.158;0.880;2023-02-13T00:40:58;1032.81;;;5.6875;31.1737
73306;BME280;61530;51.158;0.880;2023-02-13T00:42:03;1032.81;;;5.6875;31.1255
73306;BME280;61530;51.158;0.880;2023-02-13T00:43:06;1032.79;;;5.75;31.5244
73306;BME280;61530;51.158;0.880;2023-02-13T00:44:10;1032.78;;;5.6875;30.9959
73306;BME280;61530;51.158;0.880;2023-02-13T00:45:14;1032.75;;;5.75;31.4624
73306;BME280;61530;51.158;0.880;2023-02-13T00:46:19;1032.77;;;5.6875;31.8262
73306;BME280;61530;51.158;0.880;2023-02-13T00:47:22;1032.73;;;5.625;31.3692
73306;BME280;61530;51.158;0.880;2023-02-13T00:48:28;1032.73;;;5.625;31.4314
73306;BME280;61530;51.158;0.880;2023-02-13T00:49:30;1032.72;;;5.625;31.3797
73306;BME280;61530;51.158;0.880;2023-02-13T00:50:34;1032.69;;;5.625;31.4205
73306;BME280;61530;51.158;0.880;2023-02-13T00:51:38;1032.66;;;5.6875;31.0083
73306;BME280;61530;51.158;0.880;2023-02-13T00:52:42;1032.64;;;5.6875;30.9191
73306;BME280;61530;51.158;0.880;2023-02-13T00:53:46;1032.64;;;5.625;32.4923
73306;BME280;61530;51.158;0.880;2023-02-13T00:54:50;1032.63;;;5.5625;31.3868
73306;BME280;61530;51.158;0.880;2023-02-13T00:55:54;1032.63;;;5.6875;31.791
73306;BME280;61530;51.158;0.880;2023-02-13T00:56:58;1032.61;;;5.625;31.7091
73306;BME280;61530;51.158;0.880;2023-02-13T00:58:02;1032.64;;;5.5625;31.0838
73306;BME280;61530;51.158;0.880;2023-02-13T00:59:06;1032.64;;;5.5;30.7244
73306;BME280;61530;51.158;0.880;2023-02-13T01:00:11;1032.63;;;5.4375;30.6288
73306;BME280;61530;51.158;0.880;2023-02-13T01:01:14;1032.61;;;5.4375;30.8483
73306;BME280;61530;51.158;0.880;2023-02-13T01:02:18;1032.57;;;5.375;31.0366
73306;BME280;61530;51.158;0.880;2023-02-13T01:03:23;1032.56;;;5.25;30.9546
73306;BME280;61530;51.158;0.880;2023-02-13T01:04:26;1032.55;;;5.1875;30.4057
73306;BME280;61530;51.158;0.880;2023-02-13T01:05:30;1032.55;;;5.0625;30.9498
73306;BME280;61530;51.158;0.880;2023-02-13T01:06:34;1032.52;;;5.0625;31.1919
73306;BME280;61530;51.158;0.880;2023-02-13T01:07:39;1032.52;;;5.0;31.0058
73306;BME280;61530;51.158;0.880;2023-02-13T01:08:42;1032.5;;;4.9375;31.2244
73306;BME280;61530;51.158;0.880;2023-02-13T01:09:46;1032.49;;;4.8125;30.9138
73306;BME280;61530;51.158;0.880;2023-02-13T01:10:50;1032.49;;;4.8125;30.9538
73306;BME280;61530;51.158;0.880;2023-02-13T01:11:55;1032.48;;;4.6875;30.4682
73306;BME280;61530;51.158;0.880;2023-02-13T01:12:58;1032.47;;;4.75;31.0638
73306;BME280;61530;51.158;0.880;2023-02-13T01:14:03;1032.51;;;4.625;31.3102
73306;BME280;61530;51.158;0.880;2023-02-13T01:15:06;1032.5;;;4.6875;30.6707
73306;BME280;61530;51.158;0.880;2023-02-13T01:16:11;1032.52;;;4.625;31.0304
73306;BME280;61530;51.158;0.880;2023-02-13T01:17:15;1032.48;;;4.5625;31.5605
73306;BME280;61530;51.158;0.880;2023-02-13T01:18:19;1032.5;;;4.625;31.6372
73306;BME280;61530;51.158;0.880;2023-02-13T01:19:22;1032.5;;;4.625;31.9888
73306;BME280;61530;51.158;0.880;2023-02-13T01:20:27;1032.51;;;4.5625;32.6912
73306;BME280;61530;51.158;0.880;2023-02-13T01:21:30;1032.51;;;4.5625;32.4397
73306;BME280;61530;51.158;0.880;2023-02-13T01:22:34;1032.5;;;4.5;32.7621
73306;BME280;61530;51.158;0.880;2023-02-13T01:23:38;1032.49;;;4.4375;32.5887
73306;BME280;61530;51.158;0.880;2023-02-13T01:24:42;1032.49;;;4.4375;32.5384
73306;BME280;61530;51.158;0.880;2023-02-13T01:25:46;1032.52;;;4.3125;33.1332
73306;BME280;61530;51.158;0.880;2023-02-13T01:26:50;1032.53;;;4.25;32.7752
73306;BME280;61530;51.158;0.880;2023-02-13T01:27:54;1032.51;;;4.3125;32.6559
73306;BME280;61530;51.158;0.880;2023-02-13T01:28:59;1032.54;;;4.1875;32.8521
73306;BME280;61530;51.158;0.880;2023-02-13T01:30:03;1032.56;;;4.125;32.9205
73306;BME280;61530;51.158;0.880;2023-02-13T01:31:06;1032.59;;;4.1875;32.9379
73306;BME280;61530;51.158;0.880;2023-02-13T01:32:10;1032.58;;;4.0625;33.0522
73306;BME280;61530;51.158;0.880;2023-02-13T01:33:15;1032.58;;;4.125;33.0845
73306;BME280;61530;51.158;0.880;2023-02-13T01:34:18;1032.56;;;4.0;33.1375
73306;BME280;61530;51.158;0.880;2023-02-13T01:35:22;1032.54;;;4.0;32.3465
73306;BME280;61530;51.158;0.880;2023-02-13T01:36:26;1032.54;;;4.0;33.4204
73306;BME280;61530;51.158;0.880;2023-02-13T01:37:31;1032.54;;;3.9375;33.3298
73306;BME280;61530;51.158;0.880;2023-02-13T01:38:34;1032.53;;;3.9375;33.6052
73306;BME280;61530;51.158;0.880;2023-02-13T01:39:38;1032.56;;;3.8125;33.4399
73306;BME280;61530;51.158;0.880;2023-02-13T01:40:46;1032.58;;;3.75;33.5375
73306;BME280;61530;51.158;0.880;2023-02-13T01:41:46;1032.59;;;3.875;33.5043
73306;BME280;61530;51.158;0.880;2023-02-13T01:42:50;1032.57;;;3.75;33.8238
73306;BME280;61530;51.158;0.880;2023-02-13T01:43:56;1032.61;;;3.6875;33.9391
73306;BME280;61530;51.158;0.880;2023-02-13T01:45:00;1032.61;;;3.75;33.7518
73306;BME280;61530;51.158;0.880;2023-02-13T01:46:03;1032.62;;;3.625;33.9402
73306;BME280;61530;51.158;0.880;2023-02-13T01:47:08;1032.63;;;3.625;33.975
73306;BME280;61530;51.158;0.880;2023-02-13T01:48:14;1032.65;;;3.625;33.7756
73306;BME280;61530;51.158;0.880;2023-02-13T01:49:17;1032.61;;;3.5625;34.0839
73306;BME280;61530;51.158;0.880;2023-02-13T01:50:23;1032.59;;;3.5;34.3239
73306;BME280;61530;51.158;0.880;2023-02-13T01:51:26;1032.61;;;3.4375;34.1475
73306;BME280;61530;51.158;0.880;2023-02-13T01:52:26;1032.59;;;3.4375;34.3933
73306;BME280;61530;51.158;0.880;2023-02-13T01:53:32;1032.58;;;3.4375;34.5922
73306;BME280;61530;51.158;0.880;2023-02-13T01:54:35;1032.57;;;3.4375;34.4099
73306;BME280;61530;51.158;0.880;2023-02-13T01:55:43;1032.59;;;3.4375;35.0074
73306;BME280;61530;51.158;0.880;2023-02-13T01:56:45;1032.58;;;3.5;34.7289
73306;BME280;61530;51.158;0.880;2023-02-13T01:57:49;1032.61;;;3.5;34.6379
73306;BME280;61530;51.158;0.880;2023-02-13T01:58:55;1032.6;;;3.5;34.774
73306;BME280;61530;51.158;0.880;2023-02-13T01:59:56;1032.58;;;3.625;34.6375
73306;BME280;61530;51.158;0.880;2023-02-13T02:00:58;1032.59;;;3.5;34.7283
73306;BME280;61530;51.158;0.880;2023-02-13T02:02:02;1032.58;;;3.5625;34.6375
73306;BME280;61530;51.158;0.880;2023-02-13T02:03:10;1032.54;;;3.5;34.7284
73306;BME280;61530;51.158;0.880;2023-02-13T02:04:12;1032.54;;;3.625;34.6826
73306;BME280;61530;51.158;0.880;2023-02-13T02:05:16;1032.52;;;3.625;35.3489
73306;BME280;61530;51.158;0.880;2023-02-13T02:06:24;1032.51;;;3.75;35.0402
73306;BME280;61530;51.158;0.880;2023-02-13T02:07:24;1032.49;;;3.75;34.6412
73306;BME280;61530;51.158;0.880;2023-02-13T02:08:26;1032.49;;;3.8125;34.6979
73306;BME280;61530;51.158;0.880;2023-02-13T02:09:34;1032.46;;;3.8125;34.7205
73306;BME280;61530;51.158;0.880;2023-02-13T02:10:34;1032.45;;;3.8125;34.8118
73306;BME280;61530;51.158;0.880;2023-02-13T02:11:44;1032.43;;;3.875;34.8347
73306;BME280;61530;51.158;0.880;2023-02-13T02:12:44;1032.4;;;3.875;34.8568
73306;BME280;61530;51.158;0.880;2023-02-13T02:13:47;1032.37;;;3.875;35.0562
73306;BME280;61530;51.158;0.880;2023-02-13T02:14:52;1032.39;;;3.875;35.1294
73306;BME280;61530;51.158;0.880;2023-02-13T02:15:55;1032.37;;;3.875;34.8502
73306;BME280;61530;51.158;0.880;2023-02-13T02:16:58;1032.38;;;3.8125;35.1642
73306;BME280;61530;51.158;0.880;2023-02-13T02:18:05;1032.35;;;3.9375;34.6279
73306;BME280;61530;51.158;0.880;2023-02-13T02:19:21;1032.32;;;3.9375;34.9801
73306;BME280;61530;51.158;0.880;2023-02-13T02:20:22;1032.34;;;3.9375;34.5529
73306;BME280;61530;51.158;0.880;2023-02-13T02:21:40;1032.31;;;3.9375;35.1001
73306;BME280;61530;51.158;0.880;2023-02-13T02:22:44;1032.3;;;4.0;34.7407
73306;BME280;61530;51.158;0.880;2023-02-13T02:23:42;1032.29;;;4.0;34.5585
73306;BME280;61530;51.158;0.880;2023-02-13T02:24:46;1032.27;;;4.0625;35.1115
73306;BME280;61530;51.158;0.880;2023-02-13T02:25:48;1032.23;;;4.0;35.1154
73306;BME280;61530;51.158;0.880;2023-02-13T02:29:24;1032.19;;;4.0;34.5165
73306;BME280;61530;51.158;0.880;2023-02-13T02:30:38;1032.2;;;4.125;34.3337
73306;BME280;61530;51.158;0.880;2023-02-13T02:32:33;1032.21;;;4.125;34.1347
73306;BME280;61530;51.158;0.880;2023-02-13T02:32:48;1032.19;;;4.0;34.3286
73306;BME280;61530;51.158;0.880;2023-02-13T02:33:53;1032.22;;;4.0625;34.341
73306;BME280;61530;51.158;0.880;2023-02-13T02:34:53;1032.2;;;4.0;34.1456
73306;BME280;61530;51.158;0.880;2023-02-13T02:35:59;1032.19;;;4.0625;34.2253
73306;BME280;61530;51.158;0.880;2023-02-13T02:37:04;1032.18;;;4.0625;34.7269
73306;BME280;61530;51.158;0.880;2023-02-13T02:38:10;1032.18;;;4.0625;34.9035
73306;BME280;61530;51.158;0.880;2023-02-13T02:39:07;1032.17;;;4.0625;34.4752
73306;BME280;61530;51.158;0.880;2023-02-13T02:40:19;1032.16;;;4.125;34.8923
73306;BME280;61530;51.158;0.880;2023-02-13T02:41:16;1032.17;;;4.0625;34.5201
73306;BME280;61530;51.158;0.880;2023-02-13T02:42:24;1032.15;;;4.125;33.6451
73306;BME280;61530;51.158;0.880;2023-02-13T02:43:28;1032.12;;;4.0625;33.5265
73306;BME280;61530;51.158;0.880;2023-02-13T02:44:31;1032.12;;;4.0625;33.8833
73306;BME280;61530;51.158;0.880;2023-02-13T02:45:31;1032.11;;;4.0625;33.6103
73306;BME280;61530;51.158;0.880;2023-02-13T02:46:35;1032.11;;;4.0625;33.8729
73306;BME280;61530;51.158;0.880;2023-02-13T02:47:40;1032.12;;;4.0625;33.5173
73306;BME280;61530;51.158;0.880;2023-02-13T02:48:46;1032.12;;;4.25;33.6209
73306;BME280;61530;51.158;0.880;2023-02-13T02:49:50;1032.12;;;4.25;33.2314
73306;BME280;61530;51.158;0.880;2023-02-13T02:50:50;1032.11;;;4.1875;34.1976
73306;BME280;61530;51.158;0.880;2023-02-13T02:51:59;1032.11;;;4.25;33.8498
73306;BME280;61530;51.158;0.880;2023-02-13T02:53:05;1032.08;;;4.25;33.5281
73306;BME280;61530;51.158;0.880;2023-02-13T02:54:05;1032.08;;;4.25;34.02
73306;BME280;61530;51.158;0.880;2023-02-13T02:55:08;1032.07;;;4.3125;33.6999
73306;BME280;61530;51.158;0.880;2023-02-13T02:56:11;1032.07;;;4.3125;34.1506
73306;BME280;61530;51.158;0.880;2023-02-13T02:57:13;1032.04;;;4.375;33.8937
73306;BME280;61530;51.158;0.880;2023-02-13T02:58:19;1032.03;;;4.375;33.5147
73306;BME280;61530;51.158;0.880;2023-02-13T02:59:19;1032.03;;;4.375;33.2284
73306;BME280;61530;51.158;0.880;2023-02-13T03:00:24;1032.04;;;4.4375;33.6298
73306;BME280;61530;51.158;0.880;2023-02-13T03:01:29;1032.03;;;4.375;33.6498
73306;BME280;61530;51.158;0.880;2023-02-13T03:02:32;1032.01;;;4.3125;33.5692
73306;BME280;61530;51.158;0.880;2023-02-13T03:03:35;1032.04;;;4.25;33.7034
73306;BME280;61530;51.158;0.880;2023-02-13T03:04:40;1032.01;;;4.25;33.6467
73306;BME280;61530;51.158;0.880;2023-02-13T03:05:45;1032.03;;;4.375;33.8973
73306;BME280;61530;51.158;0.880;2023-02-13T03:06:49;1032.03;;;4.375;34.1387
73306;BME280;61530;51.158;0.880;2023-02-13T03:07:50;1032.05;;;4.3125;33.6575
73306;BME280;61530;51.158;0.880;2023-02-13T03:08:57;1032.08;;;4.1875;33.7493
73306;BME280;61530;51.158;0.880;2023-02-13T03:10:01;1032.1;;;4.0625;35.0773
73306;BME280;61530;51.158;0.880;2023-02-13T03:11:02;1032.08;;;4.0625;34.2223
73306;BME280;61530;51.158;0.880;2023-02-13T03:12:07;1032.09;;;4.1875;33.7237
73306;BME280;61530;51.158;0.880;2023-02-13T03:13:14;1032.06;;;4.25;33.6396
73306;BME280;61530;51.158;0.880;2023-02-13T03:14:18;1032.07;;;4.1875;33.7247
73306;BME280;61530;51.158;0.880;2023-02-13T03:15:18;1032.07;;;4.25;34.0766
73306;BME280;61530;51.158;0.880;2023-02-13T03:16:23;1032.06;;;4.1875;33.7774
73306;BME280;61530;51.158;0.880;2023-02-13T03:17:26;1032.08;;;4.3125;33.4304
73306;BME280;61530;51.158;0.880;2023-02-13T03:18:34;1032.04;;;4.3125;33.7883
73306;BME280;61530;51.158;0.880;2023-02-13T03:19:43;1032.08;;;4.3125;33.6845
73306;BME280;61530;51.158;0.880;2023-02-13T03:20:45;1032.1;;;4.3125;33.4093
73306;BME280;61530;51.158;0.880;2023-02-13T03:21:47;1032.09;;;4.4375;33.2587
73306;BME280;61530;51.158;0.880;2023-02-13T03:22:58;1032.09;;;4.5;33.0369
73306;BME280;61530;51.158;0.880;2023-02-13T03:23:54;1032.11;;;4.5;33.2132
73306;BME280;61530;51.158;0.880;2023-02-13T03:25:03;1032.1;;;4.5625;33.8521
73306;BME280;61530;51.158;0.880;2023-02-13T03:26:10;1032.08;;;4.4375;33.0493
73306;BME280;61530;51.158;0.880;2023-02-13T03:27:08;1032.09;;;4.375;33.074
73306;BME280;61530;51.158;0.880;2023-02-13T03:28:13;1032.07;;;4.4375;33.3387
73306;BME280;61530;51.158;0.880;2023-02-13T03:29:16;1032.1;;;4.3125;33.1328
73306;BME280;61530;51.158;0.880;2023-02-13T03:30:21;1032.08;;;4.25;33.2512
73306;BME280;61530;51.158;0.880;2023-02-13T03:31:27;1032.11;;;4.3125;33.6626
73306;BME280;61530;51.158;0.880;2023-02-13T03:32:27;1032.1;;;4.4375;33.4672
73306;BME280;61530;51.158;0.880;2023-02-13T03:33:39;1032.09;;;4.375;33.8643
73306;BME280;61530;51.158;0.880;2023-02-13T03:34:34;1032.06;;;4.4375;33.7372
73306;BME280;61530;51.158;0.880;2023-02-13T03:35:39;1032.07;;;4.4375;33.2223
73306;BME280;61530;51.158;0.880;2023-02-13T03:36:45;1032.05;;;4.5;32.8606
73306;BME280;61530;51.158;0.880;2023-02-13T03:37:47;1032.03;;;4.5;32.6383
73306;BME280;61530;51.158;0.880;2023-02-13T03:38:52;1032.02;;;4.5;33.705
73306;BME280;61530;51.158;0.880;2023-02-13T03:39:58;1032.03;;;4.5625;32.8069
73306;BME280;61530;51.158;0.880;2023-02-13T03:40:57;1032.02;;;4.625;33.6807
73306;BME280;61530;51.158;0.880;2023-02-13T03:42:02;1032.0;;;4.5;33.4468
73306;BME280;61530;51.158;0.880;2023-02-13T03:43:07;1032.0;;;4.5;33.6827
73306;BME280;61530;51.158;0.880;2023-02-13T03:44:12;1032.02;;;4.5;33.133
73306;BME280;61530;51.158;0.880;2023-02-13T03:45:13;1032.04;;;4.4375;33.0047
73306;BME280;61530;51.158;0.880;2023-02-13T03:46:15;1032.04;;;4.5;33.1946
73306;BME280;61530;51.158;0.880;2023-02-13T03:47:18;1032.07;;;4.375;33.0716
73306;BME280;61530;51.158;0.880;2023-02-13T03:48:25;1032.06;;;4.5;33.0965
73306;BME280;61530;51.158;0.880;2023-02-13T03:49:30;1032.06;;;4.5;32.6045
73306;BME280;61530;51.158;0.880;2023-02-13T03:50:30;1032.05;;;4.5;33.0508
73306;BME280;61530;51.158;0.880;2023-02-13T03:51:37;1032.02;;;4.375;35.4184
73306;BME280;61530;51.158;0.880;2023-02-13T03:52:43;1032.05;;;4.4375;34.407
73306;BME280;61530;51.158;0.880;2023-02-13T03:53:44;1032.07;;;4.3125;33.627
73306;BME280;61530;51.158;0.880;2023-02-13T03:54:49;1032.04;;;4.375;33.9409
73306;BME280;61530;51.158;0.880;2023-02-13T03:55:50;1032.03;;;4.3125;33.304
73306;BME280;61530;51.158;0.880;2023-02-13T03:56:55;1032.04;;;4.25;33.6036
73306;BME280;61530;51.158;0.880;2023-02-13T03:58:02;1032.05;;;4.1875;32.9329
73306;BME280;61530;51.158;0.880;2023-02-13T03:59:04;1032.08;;;4.125;33.5625
73306;BME280;61530;51.158;0.880;2023-02-13T04:00:12;1032.1;;;4.125;33.4598
73306;BME280;61530;51.158;0.880;2023-02-13T04:01:13;1032.1;;;4.1875;33.2706
73306;BME280;61530;51.158;0.880;2023-02-13T04:02:18;1032.11;;;4.125;33.5618
73306;BME280;61530;51.158;0.880;2023-02-13T04:03:23;1032.13;;;4.125;33.6636
73306;BME280;61530;51.158;0.880;2023-02-13T04:04:27;1032.13;;;4.125;33.1523
73306;BME280;61530;51.158;0.880;2023-02-13T04:05:29;1032.1;;;4.1875;34.2404
73306;BME280;61530;51.158;0.880;2023-02-13T04:06:34;1032.1;;;4.25;33.6055
73306;BME280;61530;51.158;0.880;2023-02-13T04:07:34;1032.08;;;4.25;33.8683
73306;BME280;61530;51.158;0.880;2023-02-13T04:08:38;1032.07;;;4.25;33.8393
73306;BME280;61530;51.158;0.880;2023-02-13T04:09:43;1032.07;;;4.3125;33.6054
73306;BME280;61530;51.158;0.880;2023-02-13T04:10:51;1032.06;;;4.1875;33.8163
73306;BME280;61530;51.158;0.880;2023-02-13T04:11:56;1032.05;;;4.125;33.3321
73306;BME280;61530;51.158;0.880;2023-02-13T04:13:02;1032.05;;;4.0625;33.5338
73306;BME280;61530;51.158;0.880;2023-02-13T04:14:00;1032.03;;;4.125;33.4285
73306;BME280;61530;51.158;0.880;2023-02-13T04:15:06;1032.0;;;4.1875;33.4203
73306;BME280;61530;51.158;0.880;2023-02-13T04:16:10;1032.01;;;4.125;33.5811
73306;BME280;61530;51.158;0.880;2023-02-13T04:17:16;1032.04;;;4.0;33.1974
73306;BME280;61530;51.158;0.880;2023-02-13T04:18:17;1032.05;;;4.0625;33.6279
73306;BME280;61530;51.158;0.880;2023-02-13T04:19:19;1032.05;;;4.0625;33.5186
73306;BME280;61530;51.158;0.880;2023-02-13T04:20:26;1032.03;;;4.0625;33.4558
73306;BME280;61530;51.158;0.880;2023-02-13T04:21:26;1032.02;;;4.0;33.6296
73306;BME280;61530;51.158;0.880;2023-02-13T04:22:31;1032.0;;;3.9375;33.6249
73306;BME280;61530;51.158;0.880;2023-02-13T04:23:34;1032.0;;;4.0;33.3799
73306;BME280;61530;51.158;0.880;2023-02-13T04:24:38;1032.0;;;3.875;33.4614
73306;BME280;61530;51.158;0.880;2023-02-13T04:25:44;1032.03;;;3.8125;33.1752
73306;BME280;61530;51.158;0.880;2023-02-13T04:26:46;1032.04;;;3.6875;33.5827
73306;BME280;61530;51.158;0.880;2023-02-13T04:27:50;1032.06;;;3.6875;33.5439
73306;BME280;61530;51.158;0.880;2023-02-13T04:28:54;1032.07;;;3.6875;33.8975
73306;BME280;61530;51.158;0.880;2023-02-13T04:29:58;1032.12;;;3.625;33.4881
73306;BME280;61530;51.158;0.880;2023-02-13T04:31:03;1032.11;;;3.5625;33.8652
73306;BME280;61530;51.158;0.880;2023-02-13T04:32:06;1032.11;;;3.5625;33.9969
73306;BME280;61530;51.158;0.880;2023-02-13T04:33:10;1032.08;;;3.5;34.8029
73306;BME280;61530;51.158;0.880;2023-02-13T04:34:14;1032.07;;;3.5;35.2349
73306;BME280;61530;51.158;0.880;2023-02-13T04:35:19;1032.08;;;3.4375;34.2094
73306;BME280;61530;51.158;0.880;2023-02-13T04:36:22;1032.08;;;3.5;33.433
73306;BME280;61530;51.158;0.880;2023-02-13T04:37:26;1032.06;;;3.4375;33.7185
73306;BME280;61530;51.158;0.880;2023-02-13T04:38:30;1032.06;;;3.375;34.1874
73306;BME280;61530;51.158;0.880;2023-02-13T04:39:34;1032.1;;;3.25;34.3244
73306;BME280;61530;51.158;0.880;2023-02-13T04:40:38;1032.12;;;3.375;34.1608
73306;BME280;61530;51.158;0.880;2023-02-13T04:41:42;1032.12;;;3.3125;34.6354
73306;BME280;61530;51.158;0.880;2023-02-13T04:42:46;1032.13;;;3.3125;34.5895
73306;BME280;61530;51.158;0.880;2023-02-13T04:43:50;1032.14;;;3.25;33.7251
73306;BME280;61530;51.158;0.880;2023-02-13T04:44:54;1032.17;;;3.1875;34.375
73306;BME280;61530;51.158;0.880;2023-02-13T04:45:58;1032.17;;;3.1875;34.074
73306;BME280;61530;51.158;0.880;2023-02-13T04:47:02;1032.19;;;3.125;34.3197
73306;BME280;61530;51.158;0.880;2023-02-13T04:48:07;1032.17;;;3.0;34.7814
73306;BME280;61530;51.158;0.880;2023-02-13T04:49:10;1032.17;;;3.0625;34.8898
73306;BME280;61530;51.158;0.880;2023-02-13T04:50:14;1032.17;;;3.0;34.9807
73306;BME280;61530;51.158;0.880;2023-02-13T04:51:18;1032.19;;;3.0;35.0712
73306;BME280;61530;51.158;0.880;2023-02-13T04:52:22;1032.18;;;3.0;35.8455
73306;BME280;61530;51.158;0.880;2023-02-13T04:53:26;1032.19;;;3.0625;34.7572
73306;BME280;61530;51.158;0.880;2023-02-13T04:54:30;1032.21;;;3.0625;35.4801
73306;BME280;61530;51.158;0.880;2023-02-13T04:55:37;1032.19;;;3.0;34.8198
73306;BME280;61530;51.158;0.880;2023-02-13T04:56:38;1032.21;;;3.0;34.6663
73306;BME280;61530;51.158;0.880;2023-02-13T04:57:42;1032.17;;;3.0;34.5357
73306;BME280;61530;51.158;0.880;2023-02-13T04:58:46;1032.2;;;3.0;34.6098
73306;BME280;61530;51.158;0.880;2023-02-13T04:59:50;1032.18;;;2.9375;34.8096
73306;BME280;61530;51.158;0.880;2023-02-13T05:00:55;1032.2;;;3.0;34.7408
73306;BME280;61530;51.158;0.880;2023-02-13T05:01:58;1032.2;;;2.875;34.662
73306;BME280;61530;51.158;0.880;2023-02-13T05:03:04;1032.19;;;2.875;35.2768
73306;BME280;61530;51.158;0.880;2023-02-13T05:04:06;1032.19;;;2.9375;34.9297
73306;BME280;61530;51.158;0.880;2023-02-13T05:05:10;1032.16;;;2.875;34.6511
73306;BME280;61530;51.158;0.880;2023-02-13T05:06:14;1032.17;;;2.875;35.3051
73306;BME280;61530;51.158;0.880;2023-02-13T05:07:18;1032.15;;;2.9375;36.0865
73306;BME280;61530;51.158;0.880;2023-02-13T05:08:22;1032.13;;;2.9375;34.8459
73306;BME280;61530;51.158;0.880;2023-02-13T05:09:27;1032.14;;;2.875;35.1186
73306;BME280;61530;51.158;0.880;2023-02-13T05:10:30;1032.15;;;2.75;34.8433
73306;BME280;61530;51.158;0.880;2023-02-13T05:11:34;1032.13;;;2.8125;34.2869
73306;BME280;61530;51.158;0.880;2023-02-13T05:12:38;1032.1;;;2.8125;34.6403
73306;BME280;61530;51.158;0.880;2023-02-13T05:13:42;1032.08;;;2.8125;34.7208
73306;BME280;61530;51.158;0.880;2023-02-13T05:14:46;1032.09;;;2.75;34.8289
73306;BME280;61530;51.158;0.880;2023-02-13T05:15:50;1032.1;;;2.75;35.3008
73306;BME280;61530;51.158;0.880;2023-02-13T05:16:54;1032.12;;;2.5625;34.8882
73306;BME280;61530;51.158;0.880;2023-02-13T05:17:59;1032.1;;;2.5625;35.3078
73306;BME280;61530;51.158;0.880;2023-02-13T05:19:02;1032.1;;;2.5;35.111
73306;BME280;61530;51.158;0.880;2023-02-13T05:20:07;1032.07;;;2.5;35.5584
73306;BME280;61530;51.158;0.880;2023-02-13T05:21:10;1032.07;;;2.5625;34.7557
73306;BME280;61530;51.158;0.880;2023-02-13T05:22:14;1032.02;;;2.625;34.5059
73306;BME280;61530;51.158;0.880;2023-02-13T05:23:18;1032.01;;;2.625;35.4622
73306;BME280;61530;51.158;0.880;2023-02-13T05:24:22;1031.98;;;2.625;34.564
73306;BME280;61530;51.158;0.880;2023-02-13T05:25:26;1031.98;;;2.5625;34.8545
73306;BME280;61530;51.158;0.880;2023-02-13T05:26:31;1032.0;;;2.5625;34.6267
73306;BME280;61530;51.158;0.880;2023-02-13T05:27:34;1032.0;;;2.5;34.6726
73306;BME280;61530;51.158;0.880;2023-02-13T05:28:38;1032.01;;;2.5625;35.0429
73306;BME280;61530;51.158;0.880;2023-02-13T05:29:42;1031.98;;;2.5;35.0084
73306;BME280;61530;51.158;0.880;2023-02-13T05:30:46;1031.98;;;2.5;36.0214
73306;BME280;61530;51.158;0.880;2023-02-13T05:31:52;1031.96;;;2.5;35.5443
73306;BME280;61530;51.158;0.880;2023-02-13T05:32:55;1031.98;;;2.5;34.9637
73306;BME280;61530;51.158;0.880;2023-02-13T05:33:58;1031.98;;;2.4375;34.6335
73306;BME280;61530;51.158;0.880;2023-02-13T05:35:03;1031.98;;;2.5;34.668
73306;BME280;61530;51.158;0.880;2023-02-13T05:36:07;1031.95;;;2.4375;34.9073
73306;BME280;61530;51.158;0.880;2023-02-13T05:37:10;1031.94;;;2.4375;35.4652
73306;BME280;61530;51.158;0.880;2023-02-13T05:38:14;1031.92;;;2.375;35.3452